Time;durP1;ratioP1;P1;durP2;ratioP2;P2;SDS_P1;SDS_P2;PMS_P1;PMS_P2;Temp;Humidity;BMP_temperature;BMP_pressure;BME280_temperature;BME280_humidity;BME280_pressure;Samples;Min_cycle;Max_cycle;Signal;HPM_P1;HPM_P2
2021/07/31 00:00:47;;;;;;;5.70;3.42;;;18.20;99.90;;;;;;3572041;40;20061;-67
2021/07/31 00:03:12;;;;;;;9.88;5.28;;;18.20;99.90;;;;;;3572765;40;20029;-67
2021/07/31 00:05:38;;;;;;;6.68;3.63;;;18.20;99.90;;;;;;3579764;40;20416;-68
2021/07/31 00:08:03;;;;;;;12.00;3.50;;;18.20;99.90;;;;;;3571564;40;20037;-67
2021/07/31 00:10:29;;;;;;;8.32;3.80;;;18.20;99.90;;;;;;3571958;40;20324;-68
2021/07/31 00:12:54;;;;;;;9.55;3.38;;;18.10;99.90;;;;;;3571402;40;20032;-68
2021/07/31 00:15:20;;;;;;;11.40;4.10;;;18.20;99.90;;;;;;3571944;40;20130;-68
2021/07/31 00:17:46;;;;;;;11.15;4.15;;;18.10;99.90;;;;;;3569546;40;20130;-68
2021/07/31 00:20:11;;;;;;;5.38;3.60;;;18.10;99.90;;;;;;3571573;40;20590;-68
2021/07/31 00:22:37;;;;;;;6.50;4.20;;;17.90;99.90;;;;;;3578463;40;20073;-68
2021/07/31 00:25:02;;;;;;;11.93;4.40;;;17.90;99.90;;;;;;3573598;40;20119;-68
2021/07/31 00:27:28;;;;;;;9.30;4.40;;;17.90;99.90;;;;;;3572072;40;20129;-60
2021/07/31 00:29:53;;;;;;;7.35;4.25;;;17.90;99.90;;;;;;3571512;40;20784;-60
2021/07/31 00:32:19;;;;;;;9.70;4.20;;;17.70;99.90;;;;;;3571976;40;20084;-60
2021/07/31 00:34:44;;;;;;;9.10;4.93;;;17.90;99.90;;;;;;3571080;40;20029;-61
2021/07/31 00:37:10;;;;;;;10.50;4.03;;;17.20;99.90;;;;;;3571773;40;20130;-60
2021/07/31 00:39:38;;;;;;;11.77;4.60;;;18.00;99.90;;;;;;3571749;40;20033;-60
2021/07/31 00:42:04;;;;;;;7.50;4.00;;;17.80;99.90;;;;;;3570775;40;20037;-60
2021/07/31 00:44:29;;;;;;;10.18;4.47;;;18.10;99.90;;;;;;3572263;40;20422;-60
2021/07/31 00:46:55;;;;;;;8.00;4.28;;;17.60;99.90;;;;;;3568757;40;20025;-60
2021/07/31 00:49:20;;;;;;;19.48;5.43;;;17.70;99.90;;;;;;3571109;40;20037;-60
2021/07/31 00:51:46;;;;;;;13.30;4.13;;;17.80;99.90;;;;;;3570311;40;20294;-60
2021/07/31 00:54:11;;;;;;;11.05;4.57;;;17.80;99.90;;;;;;3571108;40;20383;-60
2021/07/31 00:56:37;;;;;;;13.77;4.55;;;17.90;99.90;;;;;;3571650;40;20025;-59
2021/07/31 00:59:04;;;;;;;7.57;4.72;;;18.10;99.90;;;;;;3578958;40;20025;-60
2021/07/31 01:01:31;;;;;;;11.18;4.10;;;17.90;99.90;;;;;;3570268;40;20048;-60
2021/07/31 01:03:56;;;;;;;9.55;5.07;;;18.00;99.90;;;;;;3572346;40;20077;-61
2021/07/31 01:06:22;;;;;;;8.82;4.53;;;18.60;99.90;;;;;;3571535;40;20036;-60
2021/07/31 01:08:47;;;;;;;10.98;4.30;;;18.00;99.90;;;;;;3571693;40;20035;-60
2021/07/31 01:11:17;;;;;;;6.00;3.70;;;18.20;99.90;;;;;;3570506;40;20037;-60
2021/07/31 01:13:43;;;;;;;7.38;4.45;;;18.20;99.90;;;;;;3578194;40;20036;-60
2021/07/31 01:16:09;;;;;;;8.70;4.22;;;18.20;99.90;;;;;;3569834;40;20342;-60
2021/07/31 01:18:38;;;;;;;9.55;4.45;;;18.20;99.90;;;;;;3578038;40;20407;-60
2021/07/31 01:21:09;;;;;;;12.63;4.50;;;18.30;99.90;;;;;;3570287;40;20033;-60
2021/07/31 01:23:36;;;;;;;6.78;4.43;;;18.50;99.90;;;;;;3577425;40;20784;-61
2021/07/31 01:26:02;;;;;;;9.85;3.70;;;18.50;99.90;;;;;;3570927;40;20037;-60
2021/07/31 01:28:27;;;;;;;13.45;4.18;;;18.60;99.90;;;;;;3570075;40;20045;-60
2021/07/31 01:30:53;;;;;;;14.20;4.00;;;18.70;99.90;;;;;;3562265;40;20058;-60
2021/07/31 01:33:20;;;;;;;17.52;4.00;;;18.70;99.90;;;;;;3572065;40;20032;-61
2021/07/31 01:35:46;;;;;;;10.32;3.78;;;18.80;99.90;;;;;;3579295;40;20321;-60
2021/07/31 01:38:32;;;;;;;7.32;3.72;;;18.80;99.90;;;;;;3572234;40;20052;-60
2021/07/31 01:40:58;;;;;;;8.93;4.22;;;18.80;99.90;;;;;;3570527;40;20055;-60
2021/07/31 01:43:24;;;;;;;8.65;3.92;;;18.80;99.90;;;;;;3572181;40;20045;-60
2021/07/31 01:45:49;;;;;;;8.32;3.80;;;18.80;99.90;;;;;;3578834;40;20049;-60
2021/07/31 01:48:16;;;;;;;19.35;3.83;;;19.00;99.90;;;;;;3562525;40;20033;-68
2021/07/31 01:50:44;;;;;;;8.60;3.75;;;19.10;99.90;;;;;;3572230;40;20045;-68
2021/07/31 01:53:12;;;;;;;6.32;3.67;;;19.20;99.70;;;;;;3580172;40;20037;-68
2021/07/31 01:55:37;;;;;;;6.35;3.40;;;19.30;99.90;;;;;;3580921;40;20138;-68
2021/07/31 01:58:04;;;;;;;7.75;3.50;;;19.40;99.30;;;;;;3580029;40;20037;-68
2021/07/31 02:00:44;;;;;;;7.72;3.53;;;19.40;99.20;;;;;;3571868;40;20422;-68
2021/07/31 02:03:13;;;;;;;7.80;3.53;;;19.50;99.40;;;;;;3580847;40;20029;-68
2021/07/31 02:05:57;;;;;;;9.63;3.25;;;19.60;98.80;;;;;;3572289;40;20033;-68
2021/07/31 02:08:23;;;;;;;12.45;3.40;;;19.70;98.80;;;;;;3572279;40;20044;-69
2021/07/31 02:10:51;;;;;;;6.65;3.40;;;19.70;98.60;;;;;;3573232;40;20060;-68
2021/07/31 02:13:17;;;;;;;7.22;3.30;;;19.80;98.60;;;;;;3580977;40;20033;-68
2021/07/31 02:15:44;;;;;;;10.70;3.15;;;19.80;98.80;;;;;;3580296;40;20107;-68
2021/07/31 02:18:14;;;;;;;6.30;2.80;;;19.80;98.60;;;;;;3580120;40;20057;-68
2021/07/31 02:20:39;;;;;;;6.72;3.22;;;19.80;98.50;;;;;;3579802;40;20323;-68
2021/07/31 02:23:18;;;;;;;7.13;2.95;;;19.80;98.30;;;;;;3578895;40;20496;-68
2021/07/31 02:26:20;;;;;;;5.80;2.65;;;19.70;98.40;;;;;;3577877;40;20516;-68
2021/07/31 02:28:55;;;;;;;6.27;2.60;;;19.60;98.10;;;;;;3570474;40;20388;-68
2021/07/31 02:31:21;;;;;;;10.75;2.47;;;19.50;98.20;;;;;;3578580;40;20048;-68
2021/07/31 02:33:48;;;;;;;4.50;2.58;;;19.50;98.40;;;;;;3571755;40;20021;-68
2021/07/31 02:36:15;;;;;;;9.02;2.42;;;19.40;98.70;;;;;;3578460;40;20037;-68
2021/07/31 02:38:56;;;;;;;3.05;2.40;;;19.40;98.90;;;;;;3578379;40;20045;-68
2021/07/31 02:41:24;;;;;;;11.48;2.65;;;19.30;99.00;;;;;;3572687;40;20131;-68
2021/07/31 02:43:51;;;;;;;5.05;2.42;;;19.20;99.10;;;;;;3571806;40;20033;-68
2021/07/31 02:46:16;;;;;;;3.28;2.15;;;19.20;99.20;;;;;;3570393;40;20052;-68
2021/07/31 02:48:42;;;;;;;3.58;2.15;;;19.10;99.00;;;;;;3571921;40;20041;-68
2021/07/31 02:51:08;;;;;;;6.28;2.30;;;19.20;99.20;;;;;;3579890;40;20037;-69
2021/07/31 02:53:53;;;;;;;4.85;2.50;;;19.10;98.50;;;;;;3572379;40;20052;-68
2021/07/31 02:56:19;;;;;;;6.20;2.10;;;19.20;98.70;;;;;;3572938;40;20438;-69
2021/07/31 02:58:44;;;;;;;4.43;1.92;;;19.20;98.50;;;;;;3579960;40;20033;-68
2021/07/31 03:01:10;;;;;;;7.93;1.95;;;19.30;97.80;;;;;;3580339;40;20122;-68
2021/07/31 03:03:37;;;;;;;5.45;2.10;;;19.40;97.50;;;;;;3571645;40;20032;-68
2021/07/31 03:06:03;;;;;;;7.18;2.30;;;19.30;97.80;;;;;;3579481;40;20061;-68
2021/07/31 03:08:30;;;;;;;3.42;2.03;;;19.40;97.70;;;;;;3570539;40;20069;-68
2021/07/31 03:10:56;;;;;;;4.57;1.92;;;19.30;97.60;;;;;;3573090;40;20036;-69
2021/07/31 03:13:21;;;;;;;6.03;1.90;;;19.10;97.90;;;;;;3579727;40;20025;-67
2021/07/31 03:15:49;;;;;;;5.57;1.75;;;19.00;98.20;;;;;;3571200;40;20151;-68
2021/07/31 03:18:15;;;;;;;3.17;1.98;;;18.90;98.30;;;;;;3577215;40;20118;-68
2021/07/31 03:20:41;;;;;;;8.02;2.25;;;18.90;98.10;;;;;;3570091;40;20420;-68
2021/07/31 03:23:07;;;;;;;4.82;2.13;;;18.80;98.10;;;;;;3571317;40;20714;-69
2021/07/31 03:25:33;;;;;;;3.30;1.92;;;18.60;98.00;;;;;;3571585;40;20053;-68
2021/07/31 03:27:59;;;;;;;4.72;1.85;;;18.60;98.30;;;;;;3578750;40;20041;-68
2021/07/31 03:30:44;;;;;;;6.75;2.10;;;18.60;98.40;;;;;;3570327;40;20045;-68
2021/07/31 03:33:12;;;;;;;7.07;1.92;;;18.50;98.70;;;;;;3570158;40;20029;-68
2021/07/31 03:35:38;;;;;;;3.20;1.52;;;18.40;98.80;;;;;;3570683;40;20087;-68
2021/07/31 03:38:22;;;;;;;2.55;1.77;;;18.30;98.80;;;;;;3572005;40;20044;-68
2021/07/31 03:40:49;;;;;;;4.78;1.88;;;18.30;99.00;;;;;;3578073;40;20479;-69
2021/07/31 03:43:18;;;;;;;6.07;1.60;;;18.30;99.00;;;;;;3570170;40;20090;-70
2021/07/31 03:45:43;;;;;;;3.15;1.70;;;18.20;99.20;;;;;;3570751;40;20049;-68
2021/07/31 03:48:09;;;;;;;5.57;2.03;;;18.30;99.20;;;;;;3577545;40;20056;-68
2021/07/31 03:50:35;;;;;;;9.40;2.15;;;18.10;99.20;;;;;;3571850;40;20052;-69
2021/07/31 03:53:03;;;;;;;4.28;1.60;;;18.10;99.60;;;;;;3579147;40;20886;-68
2021/07/31 03:55:31;;;;;;;4.75;1.75;;;18.00;99.60;;;;;;3579568;40;20037;-68
2021/07/31 03:57:58;;;;;;;2.13;1.50;;;18.00;99.80;;;;;;3579468;40;20032;-68
2021/07/31 04:00:24;;;;;;;7.30;1.90;;;17.90;99.90;;;;;;3570888;40;20037;-68
2021/07/31 04:02:56;;;;;;;5.93;2.10;;;17.90;99.90;;;;;;3563169;40;20041;-68
2021/07/31 04:05:22;;;;;;;4.72;1.80;;;17.80;99.80;;;;;;3578058;40;20126;-68
2021/07/31 04:08:06;;;;;;;2.65;1.60;;;17.70;99.90;;;;;;3570055;40;20207;-68
2021/07/31 04:10:50;;;;;;;6.75;1.80;;;17.70;99.90;;;;;;3570943;40;20047;-68
2021/07/31 04:13:54;;;;;;;4.35;2.03;;;17.50;99.90;;;;;;3569338;40;20200;-68
2021/07/31 04:16:26;;;;;;;4.57;1.63;;;17.70;99.90;;;;;;3569085;40;20032;-68
2021/07/31 04:18:51;;;;;;;2.80;1.38;;;17.70;99.90;;;;;;3570904;40;20025;-69
2021/07/31 04:21:17;;;;;;;3.80;1.55;;;17.70;99.90;;;;;;3572437;40;20341;-68
2021/07/31 04:23:44;;;;;;;4.72;1.90;;;;;;;;;;3570951;40;20025;-68
2021/07/31 04:26:11;;;;;;;4.25;1.60;;;17.70;99.90;;;;;;3571083;40;20029;-69
2021/07/31 04:28:37;;;;;;;2.72;1.63;;;17.70;99.90;;;;;;3572127;40;20028;-69
2021/07/31 04:31:02;;;;;;;2.47;1.77;;;17.70;99.90;;;;;;3570115;40;20036;-68
2021/07/31 04:33:28;;;;;;;3.97;1.40;;;17.70;99.90;;;;;;3579551;40;20035;-68
2021/07/31 04:35:53;;;;;;;4.28;1.45;;;17.70;99.90;;;;;;3571059;40;20053;-68
2021/07/31 04:38:19;;;;;;;3.33;1.50;;;17.70;99.90;;;;;;3572292;40;20045;-69
2021/07/31 04:40:44;;;;;;;2.28;1.58;;;17.60;99.90;;;;;;3571850;40;20033;-68
2021/07/31 04:43:10;;;;;;;3.97;1.60;;;17.70;99.90;;;;;;3570751;40;20487;-68
2021/07/31 04:45:35;;;;;;;4.75;2.00;;;17.80;99.90;;;;;;3572166;40;20483;-68
2021/07/31 04:48:01;;;;;;;5.25;1.55;;;17.80;99.90;;;;;;3569061;40;20033;-68
2021/07/31 04:50:27;;;;;;;2.00;1.33;;;17.90;99.90;;;;;;3578851;40;20115;-68
2021/07/31 04:52:52;;;;;;;8.77;1.60;;;17.90;99.90;;;;;;3572010;40;20057;-68
2021/07/31 04:55:18;;;;;;;6.10;1.88;;;17.90;99.90;;;;;;3569325;40;20080;-69
2021/07/31 04:57:43;;;;;;;5.10;1.67;;;18.00;99.90;;;;;;3572002;40;20021;-68
2021/07/31 05:00:09;;;;;;;3.17;1.50;;;18.00;99.90;;;;;;3569404;40;20130;-68
2021/07/31 05:02:34;;;;;;;4.05;1.50;;;18.00;99.90;;;;;;3571668;40;20025;-68
2021/07/31 05:05:00;;;;;;;2.13;1.35;;;18.00;99.90;;;;;;3576513;40;20025;-67
2021/07/31 05:07:26;;;;;;;4.53;1.60;;;18.10;99.90;;;;;;3571106;40;20029;-68
2021/07/31 05:09:51;;;;;;;6.63;1.70;;;18.00;99.90;;;;;;3576798;40;20037;-68
2021/07/31 05:12:17;;;;;;;1.70;1.40;;;18.00;99.90;;;;;;3569892;40;20049;-68
2021/07/31 05:14:42;;;;;;;2.53;1.63;;;18.00;99.90;;;;;;3569873;40;20052;-67
2021/07/31 05:17:08;;;;;;;5.55;1.77;;;18.00;99.90;;;;;;3570634;40;20030;-67
2021/07/31 05:19:33;;;;;;;5.25;1.48;;;18.10;99.90;;;;;;3570658;40;20077;-67
2021/07/31 05:21:59;;;;;;;4.47;1.30;;;18.10;99.90;;;;;;3571073;40;20044;-67
2021/07/31 05:24:24;;;;;;;4.28;2.05;;;18.20;99.90;;;;;;3571326;40;20053;-67
2021/07/31 05:26:50;;;;;;;3.30;1.48;;;18.20;99.90;;;;;;3569934;40;20613;-68
2021/07/31 05:29:15;;;;;;;2.85;1.52;;;18.20;99.90;;;;;;3570966;40;20437;-67
2021/07/31 05:31:41;;;;;;;5.40;1.58;;;18.30;99.90;;;;;;3577714;40;20045;-67
2021/07/31 05:34:06;;;;;;;3.00;1.50;;;18.30;99.90;;;;;;3578682;40;20033;-68
2021/07/31 05:36:35;;;;;;;6.10;1.65;;;18.40;99.90;;;;;;3571980;40;20315;-67
2021/07/31 05:39:00;;;;;;;4.50;1.60;;;18.50;99.80;;;;;;3568891;40;20052;-68
2021/07/31 05:41:26;;;;;;;3.78;1.60;;;18.50;99.80;;;;;;3569168;40;20552;-68
2021/07/31 05:43:51;;;;;;;5.47;1.52;;;18.60;99.40;;;;;;3569910;40;20106;-68
2021/07/31 05:46:20;;;;;;;3.80;1.42;;;18.70;99.20;;;;;;3569908;40;20531;-67
2021/07/31 05:48:46;;;;;;;3.60;1.40;;;18.70;99.60;;;;;;3570082;40;20527;-67
2021/07/31 05:51:11;;;;;;;6.55;1.45;;;18.70;99.50;;;;;;3569855;40;20043;-67
2021/07/31 05:53:37;;;;;;;3.70;1.35;;;18.70;99.30;;;;;;3569837;40;20645;-67
2021/07/31 05:56:02;;;;;;;4.35;1.10;;;19.00;99.40;;;;;;3570989;40;20037;-68
2021/07/31 05:58:28;;;;;;;2.67;1.23;;;19.00;98.10;;;;;;3569997;40;20077;-68
2021/07/31 06:00:53;;;;;;;4.55;1.27;;;19.10;98.20;;;;;;3571030;40;20025;-68
2021/07/31 06:03:19;;;;;;;3.85;1.30;;;19.10;98.20;;;;;;3570592;40;20038;-68
2021/07/31 06:05:44;;;;;;;4.57;1.52;;;19.20;97.70;;;;;;3570854;40;20084;-68
2021/07/31 06:08:10;;;;;;;7.97;1.17;;;19.30;97.40;;;;;;3571193;40;20506;-68
2021/07/31 06:10:36;;;;;;;10.57;1.50;;;19.40;97.20;;;;;;3569927;40;20033;-68
2021/07/31 06:13:04;;;;;;;3.58;1.30;;;19.40;97.00;;;;;;3569279;40;20055;-68
2021/07/31 06:15:30;;;;;;;5.20;1.30;;;19.50;96.00;;;;;;3571114;40;20105;-68
2021/07/31 06:17:56;;;;;;;2.78;1.17;;;19.70;96.20;;;;;;3570775;40;20033;-68
2021/07/31 06:20:22;;;;;;;2.45;1.33;;;19.80;96.10;;;;;;3571419;40;20040;-68
2021/07/31 06:22:47;;;;;;;4.15;1.05;;;19.70;96.40;;;;;;3571676;40;20041;-67
2021/07/31 06:25:13;;;;;;;5.78;1.25;;;19.80;96.40;;;;;;3570842;40;20462;-67
2021/07/31 06:27:38;;;;;;;11.23;1.58;;;19.90;96.30;;;;;;3572587;40;20017;-68
2021/07/31 06:30:04;;;;;;;16.55;1.30;;;20.00;96.00;;;;;;3569420;40;20147;-67
2021/07/31 06:32:29;;;;;;;8.00;1.52;;;20.10;94.80;;;;;;3571627;40;20032;-67
2021/07/31 06:34:55;;;;;;;2.45;1.02;;;20.10;94.90;;;;;;3570647;40;20041;-68
2021/07/31 06:37:20;;;;;;;3.50;1.27;;;20.10;95.00;;;;;;3572271;40;21025;-59
2021/07/31 06:39:46;;;;;;;8.85;1.33;;;20.30;94.80;;;;;;3574596;40;20037;-68
2021/07/31 06:42:11;;;;;;;9.77;1.35;;;20.30;94.60;;;;;;3571353;40;20025;-68
2021/07/31 06:44:37;;;;;;;12.40;1.38;;;20.30;94.50;;;;;;3571308;40;20033;-68
2021/07/31 06:47:02;;;;;;;6.60;1.40;;;20.40;94.30;;;;;;3571041;40;20041;-59
2021/07/31 06:49:28;;;;;;;4.88;1.02;;;20.40;94.20;;;;;;3568277;40;20077;-61
2021/07/31 06:51:53;;;;;;;2.22;1.00;;;20.40;94.60;;;;;;3571546;40;20049;-61
2021/07/31 06:54:19;;;;;;;3.38;1.17;;;20.50;94.30;;;;;;3578756;40;20614;-60
2021/07/31 06:56:44;;;;;;;6.10;1.10;;;20.50;94.20;;;;;;3572704;40;20112;-60
2021/07/31 06:59:10;;;;;;;2.85;1.08;;;20.70;93.20;;;;;;3571357;40;20037;-60
2021/07/31 07:01:35;;;;;;;4.38;1.05;;;20.70;93.40;;;;;;3571098;40;20036;-61
2021/07/31 07:04:01;;;;;;;2.58;1.20;;;20.80;93.70;;;;;;3570691;40;20487;-60
2021/07/31 07:06:26;;;;;;;5.13;1.45;;;20.90;93.50;;;;;;3571393;40;20025;-61
2021/07/31 07:08:52;;;;;;;9.18;1.40;;;21.00;93.40;;;;;;3572346;40;20036;-60
2021/07/31 07:11:17;;;;;;;8.57;1.48;;;21.00;92.90;;;;;;3570699;40;20033;-59
2021/07/31 07:13:43;;;;;;;5.90;1.33;;;21.10;93.10;;;;;;3570847;40;20061;-60
2021/07/31 07:16:09;;;;;;;4.13;1.13;;;21.20;92.60;;;;;;3571188;40;20562;-61
2021/07/31 07:18:34;;;;;;;3.17;1.25;;;21.30;92.20;;;;;;3570884;40;20040;-60
2021/07/31 07:20:59;;;;;;;6.10;1.40;;;21.40;92.30;;;;;;3571772;40;20080;-68
2021/07/31 07:23:25;;;;;;;8.52;1.50;;;21.30;91.70;;;;;;3572074;40;20163;-67
2021/07/31 07:25:50;;;;;;;1.60;1.08;;;21.20;90.80;;;;;;3569977;40;20068;-68
2021/07/31 07:28:16;;;;;;;4.60;1.17;;;21.30;91.20;;;;;;3571085;40;20049;-68
2021/07/31 07:30:41;;;;;;;7.88;1.35;;;21.40;90.70;;;;;;3572401;40;20892;-59
2021/07/31 07:33:07;;;;;;;7.43;1.08;;;21.50;90.60;;;;;;3571380;40;20658;-60
2021/07/31 07:35:33;;;;;;;4.07;1.00;;;21.50;90.20;;;;;;3572066;40;20037;-59
2021/07/31 07:37:58;;;;;;;3.92;0.90;;;21.70;90.00;;;;;;3572341;40;20302;-59
2021/07/31 07:40:24;;;;;;;2.15;1.00;;;21.70;89.40;;;;;;3572264;40;20133;-62
2021/07/31 07:42:49;;;;;;;5.43;0.77;;;21.60;87.70;;;;;;3570575;40;20543;-59
2021/07/31 07:45:15;;;;;;;14.57;1.30;;;21.50;87.70;;;;;;3570841;40;20049;-60
2021/07/31 07:47:40;;;;;;;7.10;1.00;;;21.50;87.80;;;;;;3567045;40;20651;-68
2021/07/31 07:50:07;;;;;;;4.00;1.20;;;21.70;89.40;;;;;;3572778;40;20048;-69
2021/07/31 07:52:32;;;;;;;6.03;1.30;;;22.00;87.70;;;;;;3580091;40;20037;-68
2021/07/31 07:54:58;;;;;;;4.28;1.40;;;22.00;86.30;;;;;;3572257;40;20785;-68
2021/07/31 07:57:23;;;;;;;3.88;1.08;;;22.10;87.80;;;;;;3579705;40;20033;-68
2021/07/31 07:59:49;;;;;;;6.70;0.98;;;22.20;87.10;;;;;;3572266;40;20141;-68
2021/07/31 08:02:15;;;;;;;5.32;1.50;;;22.50;84.70;;;;;;3571323;40;20028;-69
2021/07/31 08:04:40;;;;;;;11.05;1.42;;;22.80;85.90;;;;;;3570679;40;20029;-69
2021/07/31 08:07:06;;;;;;;5.85;0.98;;;23.00;84.00;;;;;;3571066;40;20504;-70
2021/07/31 08:09:31;;;;;;;5.53;2.13;;;23.30;83.50;;;;;;3572366;40;20032;-68
2021/07/31 08:11:57;;;;;;;7.82;1.00;;;23.10;83.50;;;;;;3570846;40;20126;-69
2021/07/31 08:14:22;;;;;;;8.48;1.38;;;23.00;83.10;;;;;;3570372;40;20040;-65
2021/07/31 08:16:48;;;;;;;4.32;1.00;;;22.90;82.80;;;;;;3570650;40;20047;-65
2021/07/31 08:19:13;;;;;;;4.75;1.00;;;22.80;83.10;;;;;;3572055;40;20040;-65
2021/07/31 08:21:39;;;;;;;5.20;1.85;;;22.70;83.70;;;;;;3571449;40;20718;-65
2021/07/31 08:24:04;;;;;;;3.55;1.60;;;22.80;84.40;;;;;;3571957;40;20205;-65
2021/07/31 08:26:30;;;;;;;3.40;1.48;;;22.70;84.20;;;;;;3571074;40;20025;-64
2021/07/31 08:28:55;;;;;;;7.07;1.40;;;22.50;84.00;;;;;;3571925;40;20033;-70
2021/07/31 08:31:21;;;;;;;5.25;1.60;;;22.40;85.30;;;;;;3571905;40;20096;-70
2021/07/31 08:33:46;;;;;;;3.85;1.00;;;22.30;86.00;;;;;;3570628;40;20026;-69
2021/07/31 08:36:12;;;;;;;7.80;1.50;;;23.10;85.60;;;;;;3571378;40;20029;-60
2021/07/31 08:38:37;;;;;;;5.82;1.20;;;23.30;83.40;;;;;;3568242;40;20033;-68
2021/07/31 08:41:04;;;;;;;5.07;1.10;;;23.40;83.90;;;;;;3568583;40;20048;-67
2021/07/31 08:43:29;;;;;;;6.93;1.35;;;23.80;83.50;;;;;;3569715;40;20053;-67
2021/07/31 08:45:54;;;;;;;4.88;1.73;;;23.80;83.70;;;;;;3570046;40;20037;-67
2021/07/31 08:48:20;;;;;;;16.85;2.25;;;23.90;82.20;;;;;;3577961;40;20033;-67
2021/07/31 08:50:46;;;;;;;8.27;4.60;;;23.90;84.60;;;;;;3569772;40;20098;-66
2021/07/31 08:53:11;;;;;;;7.60;1.80;;;24.00;81.10;;;;;;3566668;40;20033;-67
2021/07/31 08:55:37;;;;;;;9.73;1.10;;;23.80;81.20;;;;;;3567282;40;20032;-66
2021/07/31 08:58:03;;;;;;;4.93;1.30;;;23.70;80.80;;;;;;3569785;40;20037;-73
2021/07/31 09:00:29;;;;;;;5.65;1.15;;;23.70;81.90;;;;;;3569017;40;20054;-67
2021/07/31 09:02:54;;;;;;;3.92;1.20;;;23.80;81.40;;;;;;3570188;40;20131;-66
2021/07/31 09:05:20;;;;;;;4.97;1.27;;;23.80;80.90;;;;;;3577167;40;20055;-69
2021/07/31 09:07:45;;;;;;;3.80;1.15;;;23.50;81.00;;;;;;3569885;40;20041;-70
2021/07/31 09:10:11;;;;;;;1.88;0.93;;;23.30;81.70;;;;;;3569806;40;20040;-70
2021/07/31 09:12:36;;;;;;;3.28;1.20;;;23.50;83.20;;;;;;3570286;40;20326;-68
2021/07/31 09:15:02;;;;;;;3.75;1.23;;;24.10;81.40;;;;;;3569302;40;20543;-68
2021/07/31 09:17:27;;;;;;;9.77;1.50;;;24.40;80.10;;;;;;3569601;40;20057;-69
2021/07/31 09:19:53;;;;;;;3.97;1.17;;;24.50;79.20;;;;;;3575614;40;20350;-70
2021/07/31 09:22:18;;;;;;;9.93;2.05;;;24.70;79.40;;;;;;3570000;40;20029;-70
2021/07/31 09:24:44;;;;;;;11.00;3.47;;;24.50;77.90;;;;;;3575939;40;20156;-70
2021/07/31 09:27:09;;;;;;;12.15;1.58;;;24.20;78.40;;;;;;3568984;40;20025;-70
2021/07/31 09:29:35;;;;;;;5.10;0.90;;;23.80;78.60;;;;;;3569704;40;20029;-70
2021/07/31 09:32:02;;;;;;;8.88;1.38;;;23.50;79.80;;;;;;3569232;40;20041;-69
2021/07/31 09:34:27;;;;;;;3.83;0.88;;;24.00;80.60;;;;;;3567643;40;20044;-69
2021/07/31 09:36:53;;;;;;;14.95;1.52;;;24.70;81.90;;;;;;3568151;40;20029;-71
2021/07/31 09:39:18;;;;;;;4.18;0.90;;;25.60;76.70;;;;;;3568772;40;20060;-70
2021/07/31 09:41:44;;;;;;;6.72;1.10;;;25.60;75.20;;;;;;3567894;40;20025;-70
2021/07/31 09:44:09;;;;;;;2.42;1.10;;;25.50;77.00;;;;;;3569583;40;20070;-69
2021/07/31 09:46:35;;;;;;;3.35;1.08;;;25.20;75.60;;;;;;3568415;40;20032;-70
2021/07/31 09:49:00;;;;;;;3.00;1.42;;;25.00;75.60;;;;;;3568975;40;20142;-69
2021/07/31 09:51:26;;;;;;;11.75;1.55;;;24.90;77.20;;;;;;3576979;40;20801;-68
2021/07/31 09:53:51;;;;;;;14.93;2.50;;;24.70;76.00;;;;;;3570212;40;20088;-70
2021/07/31 09:56:17;;;;;;;3.92;1.70;;;24.20;77.10;;;;;;3569676;40;20052;-69
2021/07/31 09:58:42;;;;;;;3.13;2.13;;;23.70;77.70;;;;;;3570961;40;20346;-69
2021/07/31 10:01:08;;;;;;;3.92;1.25;;;23.50;78.90;;;;;;3571146;40;20033;-69
2021/07/31 10:03:33;;;;;;;7.40;1.10;;;23.40;80.40;;;;;;3569040;40;20064;-69
2021/07/31 10:05:59;;;;;;;9.85;4.60;;;23.30;80.10;;;;;;3571015;40;20079;-69
2021/07/31 10:08:24;;;;;;;8.35;1.05;;;23.20;79.80;;;;;;3572261;40;20073;-70
2021/07/31 10:10:50;;;;;;;16.02;8.05;;;23.00;79.80;;;;;;3570014;40;20049;-70
2021/07/31 10:13:15;;;;;;;2.35;1.10;;;22.80;80.60;;;;;;3570917;40;20033;-69
2021/07/31 10:15:41;;;;;;;13.40;6.10;;;22.70;81.50;;;;;;3562321;40;20744;-70
2021/07/31 10:18:06;;;;;;;6.95;1.15;;;22.70;82.80;;;;;;3571789;40;20029;-69
2021/07/31 10:20:32;;;;;;;3.45;1.48;;;22.70;80.30;;;;;;3566296;40;20032;-69
2021/07/31 10:22:57;;;;;;;4.65;0.98;;;22.70;81.00;;;;;;3570969;40;20033;-66
2021/07/31 10:25:23;;;;;;;6.05;0.90;;;22.70;80.00;;;;;;3579191;40;20299;-70
2021/07/31 10:27:48;;;;;;;5.85;1.38;;;22.80;80.00;;;;;;3568576;40;20047;-66
2021/07/31 10:30:14;;;;;;;7.07;1.08;;;23.00;79.60;;;;;;3570036;40;20036;-66
2021/07/31 10:32:40;;;;;;;2.80;1.08;;;23.50;79.70;;;;;;3570402;40;20037;-66
2021/07/31 10:35:05;;;;;;;6.55;1.50;;;23.60;79.70;;;;;;3568630;40;20531;-65
2021/07/31 10:37:31;;;;;;;4.35;1.38;;;23.70;80.20;;;;;;3570591;40;20037;-65
2021/07/31 10:39:57;;;;;;;7.18;1.20;;;23.60;78.20;;;;;;3568355;40;20037;-65
2021/07/31 10:42:22;;;;;;;2.15;1.20;;;24.10;77.20;;;;;;3570581;40;20040;-65
2021/07/31 10:44:48;;;;;;;5.13;1.05;;;24.30;75.90;;;;;;3570123;40;20033;-68
2021/07/31 10:47:13;;;;;;;8.20;1.20;;;24.20;76.30;;;;;;3569376;40;20415;-67
2021/07/31 10:49:39;;;;;;;5.43;0.98;;;24.10;76.80;;;;;;3570914;40;20041;-68
2021/07/31 10:52:04;;;;;;;2.10;0.82;;;24.00;76.70;;;;;;3570657;40;20033;-66
2021/07/31 10:54:29;;;;;;;4.40;1.33;;;23.80;76.70;;;;;;3570493;40;20127;-68
2021/07/31 10:56:55;;;;;;;2.40;0.80;;;23.50;77.40;;;;;;3572034;40;20314;-68
2021/07/31 10:59:20;;;;;;;3.28;1.00;;;23.30;77.20;;;;;;3571374;40;20106;-70
2021/07/31 11:01:46;;;;;;;5.30;0.82;;;23.40;78.50;;;;;;3567804;40;20138;-69
2021/07/31 11:04:12;;;;;;;9.00;0.70;;;23.60;77.60;;;;;;3571590;40;20626;-69
2021/07/31 11:06:37;;;;;;;4.47;1.13;;;23.60;78.80;;;;;;3578653;40;20033;-69
2021/07/31 11:09:02;;;;;;;5.22;1.00;;;23.70;78.80;;;;;;3570501;40;20029;-65
2021/07/31 11:11:29;;;;;;;4.88;1.10;;;23.70;80.10;;;;;;3568988;40;20033;-66
2021/07/31 11:13:55;;;;;;;4.00;1.33;;;23.70;78.40;;;;;;3570216;40;20807;-66
2021/07/31 11:16:20;;;;;;;6.13;1.63;;;23.60;78.90;;;;;;3578379;40;20048;-61
2021/07/31 11:18:47;;;;;;;2.85;0.90;;;23.70;78.50;;;;;;3578079;40;20149;-59
2021/07/31 11:21:13;;;;;;;5.47;1.48;;;23.70;78.40;;;;;;3568738;40;20029;-60
2021/07/31 11:23:38;;;;;;;3.85;0.93;;;23.80;79.10;;;;;;3568290;40;20052;-67
2021/07/31 11:26:04;;;;;;;3.15;0.82;;;23.80;79.00;;;;;;3571722;40;20410;-67
2021/07/31 11:28:29;;;;;;;2.63;0.93;;;23.80;78.00;;;;;;3570153;40;20044;-68
2021/07/31 11:30:55;;;;;;;2.42;0.82;;;23.90;78.80;;;;;;3568831;40;20044;-67
2021/07/31 11:33:20;;;;;;;7.85;0.75;;;23.90;75.70;;;;;;3569801;40;20055;-67
2021/07/31 11:35:46;;;;;;;4.90;0.80;;;24.20;77.60;;;;;;3577145;40;20820;-68
2021/07/31 11:38:11;;;;;;;2.17;0.80;;;25.00;78.40;;;;;;3571625;40;20055;-67
2021/07/31 11:40:37;;;;;;;4.55;0.70;;;25.80;77.90;;;;;;3577638;40;20920;-67
2021/07/31 11:43:02;;;;;;;3.53;0.80;;;26.50;73.40;;;;;;3571728;40;20057;-67
2021/07/31 11:45:28;;;;;;;4.82;0.82;;;26.80;71.90;;;;;;3571787;40;20037;-61
2021/07/31 11:47:57;;;;;;;4.65;0.52;;;26.80;72.20;;;;;;3571052;40;20085;-60
2021/07/31 11:50:22;;;;;;;3.83;0.80;;;26.70;70.10;;;;;;3569667;40;20436;-59
2021/07/31 11:52:48;;;;;;;1.95;0.80;;;26.40;70.50;;;;;;3571243;40;20041;-59
2021/07/31 11:55:13;;;;;;;1.85;0.60;;;25.90;72.00;;;;;;3576006;40;20136;-60
2021/07/31 11:57:39;;;;;;;1.20;0.68;;;25.80;72.40;;;;;;3571387;40;20774;-60
2021/07/31 12:00:04;;;;;;;4.07;0.68;;;25.70;70.10;;;;;;3570896;40;20029;-60
2021/07/31 12:02:30;;;;;;;10.32;0.98;;;25.60;71.00;;;;;;3571425;40;20065;-60
2021/07/31 12:04:55;;;;;;;4.90;0.80;;;25.30;70.00;;;;;;3570120;40;20040;-68
2021/07/31 12:07:21;;;;;;;12.93;0.82;;;25.10;70.90;;;;;;3571137;40;20044;-67
2021/07/31 12:09:46;;;;;;;4.15;0.70;;;25.10;72.20;;;;;;3572410;40;20025;-68
2021/07/31 12:12:12;;;;;;;0.65;0.65;;;25.20;71.50;;;;;;3570587;40;20041;-67
2021/07/31 12:14:37;;;;;;;2.60;0.70;;;25.20;70.80;;;;;;3569948;40;20134;-67
2021/07/31 12:17:03;;;;;;;2.33;0.90;;;25.00;71.60;;;;;;3571072;40;20025;-68
2021/07/31 12:19:28;;;;;;;7.00;0.77;;;24.90;71.50;;;;;;3568712;40;20131;-67
2021/07/31 12:21:54;;;;;;;2.47;0.60;;;24.60;70.90;;;;;;3570232;40;20047;-68
2021/07/31 12:24:19;;;;;;;8.43;0.75;;;24.40;72.30;;;;;;3570272;40;20056;-68
2021/07/31 12:26:45;;;;;;;6.60;0.75;;;24.20;71.10;;;;;;3570130;40;20077;-67
2021/07/31 12:29:10;;;;;;;6.75;0.93;;;24.30;73.00;;;;;;3569529;40;20607;-69
2021/07/31 12:31:36;;;;;;;2.47;0.80;;;24.40;71.50;;;;;;3570021;40;20575;-68
2021/07/31 12:34:01;;;;;;;6.97;1.00;;;24.70;71.40;;;;;;3569786;40;20033;-68
2021/07/31 12:36:27;;;;;;;6.32;0.60;;;24.80;70.30;;;;;;3569275;40;20044;-61
2021/07/31 12:38:54;;;;;;;8.15;0.93;;;24.90;70.60;;;;;;3569835;40;20130;-60
2021/07/31 12:41:20;;;;;;;6.70;0.65;;;25.00;69.00;;;;;;3567824;40;20446;-60